createdAt,value
2019-03-21T00:04:30.126Z,76.07
2019-03-21T00:06:58.911Z,75.37
2019-03-21T00:09:27.808Z,75.88
2019-03-21T00:11:58.739Z,75.69
2019-03-21T00:15:05.428Z,74.78
2019-03-21T00:17:40.295Z,75.81
2019-03-21T00:23:12.592Z,75.33
2019-03-21T00:25:41.883Z,75.41
2019-03-21T00:28:10.720Z,74.82
2019-03-21T00:30:50.988Z,75.26
2019-03-21T00:36:40.669Z,75.46
2019-03-21T00:39:10.102Z,74.88
2019-03-21T00:41:39.416Z,74.23
2019-03-21T00:44:17.900Z,73.69
2019-03-21T00:46:39.620Z,75.54
2019-03-21T00:49:08.766Z,75.31
2019-03-21T00:51:36.913Z,75.60
2019-03-21T00:54:05.516Z,76.65
2019-03-21T00:56:33.976Z,76.66
2019-03-21T00:59:02.796Z,75.99
2019-03-21T01:01:31.894Z,75.98
2019-03-21T01:04:00.798Z,75.81
2019-03-21T01:06:29.995Z,76.19
2019-03-21T01:08:58.823Z,76.16
2019-03-21T01:11:28.053Z,76.00
2019-03-21T01:13:56.876Z,76.88
2019-03-21T01:16:26.094Z,76.13
2019-03-21T01:18:54.841Z,75.54
2019-03-21T01:21:23.744Z,75.77
2019-03-21T01:23:52.938Z,76.28
2019-03-21T01:26:21.652Z,75.97
2019-03-21T01:28:50.881Z,76.27
2019-03-21T01:31:19.629Z,76.90
2019-03-21T01:33:48.842Z,77.15
2019-03-21T01:36:19.141Z,76.44
2019-03-21T01:38:48.304Z,77.62
2019-03-21T01:41:17.269Z,77.50
2019-03-21T01:43:46.089Z,76.67
2019-03-21T01:46:15.812Z,77.66
2019-03-21T01:48:45.030Z,77.52
2019-03-21T01:51:53.980Z,77.63
2019-03-21T01:54:22.145Z,76.85
2019-03-21T01:56:50.581Z,77.85
2019-03-21T01:59:19.456Z,78.28
2019-03-21T02:01:47.979Z,78.54
2019-03-21T02:04:17.095Z,77.95
2019-03-21T02:06:46.299Z,78.06
2019-03-21T02:09:15.480Z,78.43
2019-03-21T02:11:44.231Z,78.23
2019-03-21T02:14:12.940Z,77.69
2019-03-21T02:16:42.015Z,77.32
2019-03-21T02:19:11.178Z,77.81
2019-03-21T02:21:39.609Z,78.54
2019-03-21T02:24:09.215Z,78.20
2019-03-21T02:26:38.345Z,77.91
2019-03-21T02:29:07.570Z,77.49
2019-03-21T02:31:36.724Z,77.01
2019-03-21T02:34:06.307Z,76.93
2019-03-21T02:36:35.130Z,76.85
2019-03-21T02:39:16.234Z,76.18
2019-03-21T02:41:44.307Z,76.88
2019-03-21T02:44:13.392Z,77.19
2019-03-21T02:50:03.005Z,77.75
2019-03-21T02:52:31.680Z,77.05
2019-03-21T02:55:00.809Z,76.91
2019-03-21T02:57:29.930Z,77.00
2019-03-21T02:59:59.203Z,76.80
2019-03-21T03:02:28.219Z,76.41
2019-03-21T03:04:56.410Z,76.48
2019-03-21T03:07:25.438Z,76.54
2019-03-21T03:10:14.303Z,75.91
2019-03-21T03:12:43.150Z,76.67
2019-03-21T03:15:44.042Z,76.96
2019-03-21T03:21:32.843Z,76.23
2019-03-21T03:24:01.664Z,76.74
2019-03-21T03:26:30.879Z,76.19
2019-03-21T03:28:59.665Z,76.26
2019-03-21T03:31:28.558Z,77.15
2019-03-21T03:33:56.983Z,76.37
2019-03-21T03:36:25.949Z,76.43
2019-03-21T03:38:54.742Z,76.23
2019-03-21T03:41:23.535Z,76.24
2019-03-21T03:43:52.627Z,76.46
2019-03-21T03:46:21.770Z,76.78
2019-03-21T03:48:51.056Z,76.52
2019-03-21T03:51:20.301Z,76.42
2019-03-21T03:53:49.541Z,76.12
2019-03-21T03:56:18.441Z,76.34
2019-03-21T03:58:47.933Z,76.30
2019-03-21T04:01:17.116Z,76.65
2019-03-21T04:03:46.314Z,76.42
2019-03-21T04:06:15.551Z,76.10
2019-03-21T04:08:44.359Z,76.00
2019-03-21T04:11:13.322Z,75.66
2019-03-21T04:13:41.786Z,75.54
2019-03-21T04:16:10.209Z,74.73
2019-03-21T04:18:39.416Z,75.08
2019-03-21T04:21:07.880Z,74.39
2019-03-21T04:23:37.111Z,74.65
2019-03-21T04:26:09.369Z,74.95
2019-03-21T04:28:38.028Z,74.40
2019-03-21T04:31:07.615Z,74.22
2019-03-21T04:33:36.597Z,72.66
2019-03-21T04:36:05.581Z,72.11
2019-03-21T04:38:34.445Z,70.83
2019-03-21T04:41:03.730Z,69.57
2019-03-21T04:43:32.584Z,69.46
2019-03-21T04:46:03.573Z,68.64
2019-03-21T04:48:38.435Z,69.04
2019-03-21T04:51:07.579Z,67.92
2019-03-21T04:53:36.044Z,68.03
2019-03-21T04:56:04.746Z,67.89
2019-03-21T04:58:33.339Z,66.97
2019-03-21T05:01:02.566Z,66.70
2019-03-21T05:03:31.370Z,68.18
2019-03-21T05:05:59.965Z,67.87
2019-03-21T05:08:29.060Z,68.10
2019-03-21T05:10:57.635Z,68.39
2019-03-21T05:13:26.537Z,68.44
2019-03-21T05:15:55.829Z,68.46
2019-03-21T05:18:28.119Z,68.26
2019-03-21T05:20:57.350Z,68.54
2019-03-21T05:23:26.221Z,68.38
2019-03-21T05:25:55.394Z,68.72
2019-03-21T05:28:24.306Z,66.86
2019-03-21T05:30:56.435Z,67.36
2019-03-21T05:33:25.244Z,67.04
2019-03-21T05:35:54.479Z,68.01
2019-03-21T05:38:23.101Z,67.21
2019-03-21T05:40:52.280Z,67.55
2019-03-21T05:43:23.488Z,66.88
2019-03-21T05:45:51.876Z,67.29
2019-03-21T05:48:21.093Z,67.73
2019-03-21T05:50:50.170Z,67.64
2019-03-21T05:53:19.000Z,67.42
2019-03-21T05:55:49.135Z,66.94
2019-03-21T05:58:17.977Z,68.57
2019-03-21T06:00:47.705Z,68.12
2019-03-21T06:03:45.957Z,68.71
2019-03-21T06:06:17.914Z,68.42
2019-03-21T06:08:46.720Z,68.58
2019-03-21T06:11:14.890Z,68.92
2019-03-21T06:13:43.386Z,68.80
2019-03-21T06:16:12.391Z,68.42
2019-03-21T06:19:19.034Z,68.74
2019-03-21T06:22:25.714Z,68.72
2019-03-21T06:25:30.453Z,68.18
2019-03-21T06:27:59.754Z,68.40
2019-03-21T06:30:27.972Z,68.23
2019-03-21T06:32:57.079Z,68.35
2019-03-21T06:35:25.601Z,67.22
2019-03-21T06:37:54.584Z,68.01
2019-03-21T06:46:25.022Z,66.70
2019-03-21T06:48:54.144Z,66.18
2019-03-21T06:51:22.629Z,66.36
2019-03-21T06:53:51.406Z,66.17
2019-03-21T06:59:38.825Z,64.41
2019-03-21T07:02:07.629Z,63.99
2019-03-21T07:04:36.715Z,61.61
2019-03-21T07:07:08.519Z,61.43
2019-03-21T07:09:42.402Z,60.73
2019-03-21T07:12:10.882Z,58.84
2019-03-21T07:14:39.785Z,58.13
2019-03-21T07:17:08.901Z,58.83
2019-03-21T07:19:38.089Z,58.83
2019-03-21T07:22:07.276Z,57.33
2019-03-21T07:24:36.120Z,58.15
2019-03-21T07:27:05.035Z,57.66
2019-03-21T07:29:34.219Z,57.19
2019-03-21T07:32:03.075Z,57.73
2019-03-21T07:34:32.291Z,57.14
2019-03-21T07:37:01.293Z,57.07
2019-03-21T07:39:30.532Z,56.46
2019-03-21T07:42:01.243Z,56.63
2019-03-21T07:44:38.911Z,55.90
2019-03-21T07:47:12.715Z,54.47
2019-03-21T08:11:15.561Z,52.19
2019-03-21T08:13:44.806Z,52.15
2019-03-21T08:16:13.750Z,51.61
2019-03-21T08:18:42.965Z,51.73
2019-03-21T08:21:10.690Z,51.75
2019-03-21T08:23:39.912Z,51.30
2019-03-21T08:26:08.781Z,49.88
2019-03-21T08:28:36.945Z,50.37
2019-03-21T08:31:24.830Z,48.69
2019-03-21T08:39:42.984Z,46.12
2019-03-21T08:42:11.869Z,44.17
2019-03-21T08:44:40.640Z,43.99
2019-03-21T08:47:09.837Z,44.10
2019-03-21T08:49:39.005Z,43.48
2019-03-21T08:52:07.747Z,42.54
2019-03-21T08:54:36.586Z,41.27
2019-03-21T08:57:05.769Z,41.18
2019-03-21T08:59:34.142Z,40.85
2019-03-21T09:02:03.370Z,41.07
2019-03-21T09:04:32.718Z,40.56
2019-03-21T09:07:13.049Z,41.66
2019-03-21T09:09:41.826Z,40.83
2019-03-21T09:12:22.407Z,41.37
2019-03-21T09:14:51.266Z,41.69
2019-03-21T09:17:20.295Z,41.16
2019-03-21T09:19:48.747Z,44.00
2019-03-21T09:25:20.478Z,40.94
2019-03-21T09:27:49.309Z,40.04
2019-03-21T09:30:18.562Z,38.74
2019-03-21T09:32:47.782Z,37.26
2019-03-21T09:35:16.932Z,37.54
2019-03-21T09:37:46.060Z,38.26
2019-03-21T09:40:54.238Z,38.25
2019-03-21T09:43:23.097Z,37.55
2019-03-21T09:45:51.589Z,37.86
2019-03-21T09:48:20.458Z,36.63
2019-03-21T09:50:48.876Z,36.82
2019-03-21T09:53:17.721Z,36.34
2019-03-21T09:55:46.504Z,36.82
2019-03-21T09:58:15.623Z,36.10
2019-03-21T10:00:44.772Z,34.59
2019-03-21T10:03:13.262Z,34.54
2019-03-21T10:05:42.396Z,32.86
2019-03-21T10:08:11.266Z,32.64
2019-03-21T10:10:39.746Z,31.73
2019-03-21T10:13:09.029Z,32.18
2019-03-21T10:15:37.060Z,31.88
2019-03-21T10:18:05.925Z,30.54
2019-03-21T10:20:35.057Z,29.57
2019-03-21T10:23:04.258Z,31.18
2019-03-21T10:28:33.129Z,30.01
2019-03-21T10:31:02.222Z,30.46
2019-03-21T10:33:30.752Z,28.41
2019-03-21T10:35:59.276Z,26.66
2019-03-21T10:38:28.172Z,27.32
2019-03-21T10:40:56.686Z,28.25
2019-03-21T10:43:25.881Z,26.02
2019-03-21T10:45:54.788Z,27.93
2019-03-21T10:48:23.686Z,28.83
2019-03-21T10:50:52.460Z,27.49
2019-03-21T10:53:21.412Z,26.73
2019-03-21T10:55:49.866Z,26.65
2019-03-21T10:58:18.700Z,29.81
2019-03-21T11:00:47.538Z,27.61
2019-03-21T11:03:16.345Z,28.00
2019-03-21T11:05:45.236Z,27.01
2019-03-21T11:08:13.626Z,24.87
2019-03-21T11:10:42.442Z,25.07
2019-03-21T11:13:10.955Z,25.53
2019-03-21T11:15:39.472Z,26.22
2019-03-21T11:18:07.980Z,25.86
2019-03-21T11:20:38.586Z,25.22
2019-03-21T11:23:08.003Z,24.84
2019-03-21T11:28:39.429Z,23.96
2019-03-21T11:31:08.675Z,24.67
2019-03-21T11:33:37.561Z,22.83
2019-03-21T11:36:06.832Z,24.11
2019-03-21T11:38:35.438Z,23.58
2019-03-21T11:41:04.472Z,22.04
2019-03-21T11:43:33.458Z,23.08
2019-03-21T11:46:02.386Z,24.18
2019-03-21T11:48:31.346Z,25.66
2019-03-21T11:51:00.207Z,23.34
2019-03-21T11:53:29.501Z,23.43
2019-03-21T11:55:58.767Z,24.87
2019-03-21T11:58:27.571Z,24.11
2019-03-21T12:00:56.672Z,24.38
2019-03-21T12:03:25.817Z,25.44
2019-03-21T12:05:55.047Z,22.96
2019-03-21T12:08:24.463Z,24.18
2019-03-21T12:10:52.943Z,23.82
2019-03-21T12:13:21.456Z,24.35
2019-03-21T12:15:50.568Z,25.59
2019-03-21T12:18:19.456Z,25.83
2019-03-21T12:20:47.951Z,23.97
2019-03-21T12:23:17.127Z,24.06
2019-03-21T12:25:46.121Z,24.25
2019-03-21T12:28:14.648Z,23.48
2019-03-21T12:31:22.879Z,21.98
2019-03-21T12:33:52.072Z,22.03
2019-03-21T12:39:29.698Z,21.97
2019-03-21T12:48:21.615Z,24.51
2019-03-21T12:53:52.663Z,23.47
2019-03-21T12:56:21.903Z,24.52
2019-03-21T12:58:50.804Z,24.06
2019-03-21T13:01:19.731Z,22.55
2019-03-21T13:03:48.805Z,22.91
2019-03-21T13:06:17.574Z,22.81
2019-03-21T13:08:46.389Z,22.45
2019-03-21T13:11:15.284Z,23.91
2019-03-21T13:13:43.986Z,24.77
2019-03-21T13:16:13.122Z,22.76
2019-03-21T13:18:41.763Z,22.73
2019-03-21T13:21:10.917Z,22.86
2019-03-21T13:23:40.167Z,21.47
2019-03-21T13:26:27.751Z,21.95
2019-03-21T13:28:57.007Z,21.95
2019-03-21T13:31:45.032Z,23.91
2019-03-21T13:34:53.884Z,22.74
2019-03-21T13:37:23.172Z,20.45
2019-03-21T13:39:52.058Z,20.86
2019-03-21T13:42:21.233Z,20.54
2019-03-21T13:44:50.327Z,18.67
2019-03-21T13:47:19.573Z,20.00
2019-03-21T13:50:28.542Z,18.69
2019-03-21T13:53:18.072Z,19.47
2019-03-21T13:55:39.084Z,18.91
2019-03-21T13:58:08.279Z,20.19
2019-03-21T14:00:37.613Z,20.58
2019-03-21T14:03:06.783Z,19.44
2019-03-21T14:05:35.978Z,19.13
2019-03-21T14:08:05.296Z,19.85
2019-03-21T14:10:34.483Z,20.76
2019-03-21T14:13:03.043Z,20.68
2019-03-21T14:15:31.802Z,20.83
2019-03-21T14:18:40.813Z,22.17
2019-03-21T14:21:09.678Z,21.26
2019-03-21T14:23:43.484Z,23.76
2019-03-21T14:26:16.434Z,22.71
2019-03-21T14:28:45.002Z,21.08
2019-03-21T14:31:13.416Z,21.47
2019-03-21T14:33:42.577Z,21.20
2019-03-21T14:36:11.554Z,20.13
2019-03-21T14:38:40.421Z,19.50
2019-03-21T14:41:09.533Z,19.50
2019-03-21T14:43:38.743Z,20.32
2019-03-21T14:46:07.908Z,19.77
2019-03-21T14:48:36.393Z,18.75
2019-03-21T14:51:05.695Z,19.79
2019-03-21T14:53:34.519Z,20.20
2019-03-21T14:56:05.329Z,19.22
2019-03-21T14:58:34.097Z,19.62
2019-03-21T15:01:03.092Z,21.20
2019-03-21T15:03:32.053Z,21.58
2019-03-21T15:06:01.059Z,20.50
2019-03-21T15:08:30.221Z,18.88
2019-03-21T15:10:59.208Z,18.80
2019-03-21T15:13:28.258Z,18.46
2019-03-21T15:15:57.501Z,18.73
2019-03-21T15:18:26.338Z,18.15
2019-03-21T15:20:58.178Z,18.64
2019-03-21T15:23:27.458Z,18.53
2019-03-21T15:25:56.759Z,19.72
2019-03-21T15:28:26.030Z,20.05
2019-03-21T15:30:54.081Z,20.22
2019-03-21T15:33:22.665Z,20.12
2019-03-21T15:35:51.561Z,19.41
2019-03-21T15:38:20.928Z,19.66
2019-03-21T15:41:08.594Z,19.12
2019-03-21T15:43:37.547Z,19.12
2019-03-21T15:46:06.393Z,19.81
2019-03-21T15:48:35.759Z,19.29
2019-03-21T15:51:05.225Z,18.37
2019-03-21T15:53:37.404Z,18.86
2019-03-21T15:56:06.700Z,19.47
2019-03-21T15:59:15.185Z,19.16
2019-03-21T16:04:24.432Z,20.24
2019-03-21T16:06:53.519Z,19.17
2019-03-21T16:09:22.534Z,20.01
2019-03-21T16:11:51.480Z,20.62
2019-03-21T16:14:20.917Z,21.51
2019-03-21T16:16:49.911Z,21.57
2019-03-21T16:19:20.107Z,21.52
2019-03-21T16:21:49.285Z,20.65
2019-03-21T16:24:18.045Z,22.51
2019-03-21T16:26:47.498Z,22.52
2019-03-21T16:29:35.391Z,22.97
2019-03-21T16:32:03.499Z,22.92
2019-03-21T16:34:32.109Z,23.94
2019-03-21T16:37:01.384Z,24.30
2019-03-21T16:39:30.373Z,24.28
2019-03-21T16:41:59.678Z,24.79
2019-03-21T16:44:28.922Z,26.79
2019-03-21T16:46:57.820Z,27.73
2019-03-21T16:49:27.097Z,29.69
2019-03-21T16:51:56.305Z,30.64
2019-03-21T16:54:24.684Z,31.72
2019-03-21T16:56:53.552Z,32.99
2019-03-21T16:59:22.049Z,33.55
2019-03-21T17:01:50.849Z,34.54
2019-03-21T17:04:19.423Z,35.18
2019-03-21T17:06:48.675Z,35.02
2019-03-21T17:09:17.871Z,36.00
2019-03-21T17:11:46.417Z,36.39
2019-03-21T17:14:15.319Z,36.27
2019-03-21T17:16:44.719Z,37.30
2019-03-21T17:19:13.858Z,38.98
2019-03-21T17:21:43.199Z,38.18
2019-03-21T17:24:12.438Z,39.27
2019-03-21T17:26:41.234Z,40.01
2019-03-21T17:29:10.084Z,41.25
2019-03-21T17:31:39.451Z,41.38
2019-03-21T17:34:08.224Z,42.65
2019-03-21T17:36:37.454Z,43.23
2019-03-21T17:39:08.293Z,43.60
2019-03-21T17:41:37.484Z,43.50
2019-03-21T17:44:06.772Z,44.98
2019-03-21T17:46:35.892Z,45.39
2019-03-21T17:49:05.457Z,45.91
2019-03-21T17:51:33.519Z,46.59
2019-03-21T17:54:02.420Z,46.62
2019-03-21T17:56:31.677Z,47.85
2019-03-21T17:59:00.485Z,47.57
2019-03-21T18:01:28.948Z,48.83
2019-03-21T18:04:37.613Z,48.40
2019-03-21T18:10:20.375Z,48.23
2019-03-21T18:12:49.767Z,48.86
2019-03-21T18:15:19.026Z,49.74
2019-03-21T18:17:48.114Z,50.80
2019-03-21T18:20:56.726Z,50.54
2019-03-21T18:23:25.781Z,51.78
2019-03-21T18:25:55.018Z,51.93
2019-03-21T18:28:54.900Z,52.69
2019-03-21T18:31:24.198Z,53.76
2019-03-21T18:33:53.196Z,54.97
2019-03-21T18:36:22.151Z,55.52
2019-03-21T18:41:54.220Z,56.77
2019-03-21T18:44:23.537Z,58.22
2019-03-21T18:46:52.078Z,57.88
2019-03-21T18:49:21.284Z,58.01
2019-03-21T18:51:50.652Z,57.97
2019-03-21T18:57:20.927Z,57.57
2019-03-21T18:59:49.133Z,59.01
2019-03-21T19:02:18.343Z,58.57
2019-03-21T19:05:27.300Z,58.72
2019-03-21T19:10:57.630Z,59.52
2019-03-21T19:13:26.350Z,59.00
2019-03-21T19:15:55.214Z,59.91
2019-03-21T19:19:03.750Z,59.56
2019-03-21T19:21:50.998Z,61.16
2019-03-21T19:24:20.213Z,61.77
2019-03-21T19:26:49.361Z,60.91
2019-03-21T19:29:37.877Z,60.77
2019-03-21T19:32:06.773Z,61.38
2019-03-21T19:34:35.313Z,61.97
2019-03-21T19:37:03.872Z,61.35
2019-03-21T19:40:12.856Z,61.81
2019-03-21T19:42:53.106Z,61.36
2019-03-21T19:45:22.330Z,61.87
2019-03-21T19:47:51.659Z,61.92
2019-03-21T19:53:53.532Z,61.03
2019-03-21T19:59:23.787Z,61.81
2019-03-21T20:02:11.352Z,61.71
2019-03-21T20:07:20.119Z,62.45
2019-03-21T20:10:07.139Z,61.78
2019-03-21T20:12:47.532Z,62.70
2019-03-21T20:18:18.189Z,62.93
2019-03-21T20:21:26.854Z,63.74
2019-03-21T20:24:07.211Z,63.47
2019-03-21T20:29:57.203Z,63.97
2019-03-21T20:35:56.742Z,64.06
2019-03-21T20:38:37.272Z,63.80
2019-03-21T20:41:25.154Z,64.48
2019-03-21T20:46:57.309Z,64.49
2019-03-21T20:49:26.243Z,64.45
2019-03-21T20:58:06.376Z,64.34
2019-03-21T21:00:35.672Z,64.47
2019-03-21T21:03:04.576Z,65.13
2019-03-21T21:08:36.508Z,64.61
2019-03-21T21:11:24.155Z,65.26
2019-03-21T21:13:53.024Z,65.66
2019-03-21T21:19:22.555Z,65.77
2019-03-21T21:21:51.428Z,64.60
2019-03-21T21:27:22.178Z,65.70
2019-03-21T21:29:50.760Z,66.22
2019-03-21T21:32:19.684Z,66.45
2019-03-21T21:37:57.980Z,66.44
2019-03-21T21:43:47.317Z,65.37
2019-03-21T21:46:16.212Z,65.93
2019-03-21T21:48:44.774Z,66.12
2019-03-21T21:51:13.220Z,66.10
2019-03-21T21:53:42.055Z,66.59
2019-03-21T21:56:17.501Z,66.22
2019-03-21T21:58:51.465Z,66.41
2019-03-21T22:04:40.379Z,66.66
2019-03-21T22:07:09.129Z,66.65
2019-03-21T22:09:38.490Z,67.11
2019-03-21T22:12:07.995Z,66.49
2019-03-21T22:14:37.073Z,67.46
2019-03-21T22:17:06.085Z,67.61
2019-03-21T22:19:35.057Z,66.53
2019-03-21T22:25:32.940Z,67.02
2019-03-21T22:31:13.720Z,66.79
2019-03-21T22:33:42.618Z,67.29
2019-03-21T22:36:11.579Z,68.56
2019-03-21T22:38:40.491Z,67.87
2019-03-21T22:41:09.700Z,68.08
2019-03-21T22:43:39.044Z,67.96
2019-03-21T22:46:07.580Z,68.33
2019-03-21T22:48:36.387Z,67.65
2019-03-21T22:51:04.440Z,68.09
2019-03-21T22:53:32.889Z,68.33
2019-03-21T22:58:42.796Z,67.76
2019-03-21T23:01:12.059Z,68.33
2019-03-21T23:06:42.231Z,66.89
2019-03-21T23:09:30.205Z,67.38
2019-03-21T23:12:17.721Z,69.74
2019-03-21T23:15:26.615Z,68.27
2019-03-21T23:17:55.724Z,69.68
2019-03-21T23:23:27.895Z,69.11
2019-03-21T23:25:57.196Z,69.89
2019-03-21T23:28:25.709Z,70.03
2019-03-21T23:31:25.890Z,69.61
2019-03-21T23:37:46.245Z,70.05
2019-03-21T23:40:15.140Z,70.10
2019-03-21T23:42:44.034Z,70.21
2019-03-21T23:45:13.471Z,69.82
2019-03-21T23:48:22.368Z,70.20
2019-03-21T23:50:51.023Z,71.15
2019-03-21T23:56:22.615Z,69.93
2019-03-21T23:58:51.439Z,70.92
